sensor_id;sensor_type;location;lat;lon;timestamp;P1;durP1;ratioP1;P2;durP2;ratioP2
9884;SDS011;4981;50.966;4.842;2022-12-18T00:02:16;55.80;;;27.87;;
9884;SDS011;4981;50.966;4.842;2022-12-18T00:04:43;55.57;;;26.90;;
9884;SDS011;4981;50.966;4.842;2022-12-18T00:07:10;53.77;;;26.00;;
9884;SDS011;4981;50.966;4.842;2022-12-18T00:09:37;47.90;;;25.30;;
9884;SDS011;4981;50.966;4.842;2022-12-18T00:12:04;48.93;;;24.43;;
9884;SDS011;4981;50.966;4.842;2022-12-18T00:14:31;46.33;;;23.50;;
9884;SDS011;4981;50.966;4.842;2022-12-18T00:16:59;46.43;;;23.77;;
9884;SDS011;4981;50.966;4.842;2022-12-18T00:19:27;43.30;;;23.57;;
9884;SDS011;4981;50.966;4.842;2022-12-18T00:21:54;55.73;;;27.37;;
9884;SDS011;4981;50.966;4.842;2022-12-18T00:24:23;57.17;;;27.33;;
9884;SDS011;4981;50.966;4.842;2022-12-18T00:26:50;62.93;;;28.20;;
9884;SDS011;4981;50.966;4.842;2022-12-18T00:29:17;59.60;;;27.63;;
9884;SDS011;4981;50.966;4.842;2022-12-18T00:31:44;63.37;;;28.40;;
9884;SDS011;4981;50.966;4.842;2022-12-18T00:34:11;57.10;;;26.77;;
9884;SDS011;4981;50.966;4.842;2022-12-18T00:36:40;51.80;;;25.57;;
9884;SDS011;4981;50.966;4.842;2022-12-18T00:39:07;44.50;;;22.23;;
9884;SDS011;4981;50.966;4.842;2022-12-18T00:41:36;49.60;;;23.93;;
9884;SDS011;4981;50.966;4.842;2022-12-18T00:44:20;36.40;;;20.97;;
9884;SDS011;4981;50.966;4.842;2022-12-18T00:46:47;45.10;;;22.53;;
9884;SDS011;4981;50.966;4.842;2022-12-18T00:49:14;48.10;;;21.93;;
9884;SDS011;4981;50.966;4.842;2022-12-18T00:51:44;41.37;;;20.50;;
9884;SDS011;4981;50.966;4.842;2022-12-18T00:54:11;35.00;;;19.10;;
9884;SDS011;4981;50.966;4.842;2022-12-18T00:56:38;39.93;;;21.50;;
9884;SDS011;4981;50.966;4.842;2022-12-18T00:59:06;40.43;;;20.73;;
9884;SDS011;4981;50.966;4.842;2022-12-18T01:01:33;39.40;;;20.13;;
9884;SDS011;4981;50.966;4.842;2022-12-18T01:04:00;34.20;;;18.53;;
9884;SDS011;4981;50.966;4.842;2022-12-18T01:06:28;38.10;;;19.10;;
9884;SDS011;4981;50.966;4.842;2022-12-18T01:08:57;37.33;;;19.73;;
9884;SDS011;4981;50.966;4.842;2022-12-18T01:11:24;34.43;;;18.43;;
9884;SDS011;4981;50.966;4.842;2022-12-18T01:13:52;33.47;;;17.27;;
9884;SDS011;4981;50.966;4.842;2022-12-18T01:16:19;36.07;;;18.00;;
9884;SDS011;4981;50.966;4.842;2022-12-18T01:18:47;36.97;;;18.37;;
9884;SDS011;4981;50.966;4.842;2022-12-18T01:21:17;35.47;;;18.67;;
9884;SDS011;4981;50.966;4.842;2022-12-18T01:23:44;32.33;;;17.53;;
9884;SDS011;4981;50.966;4.842;2022-12-18T01:26:13;33.67;;;18.20;;
9884;SDS011;4981;50.966;4.842;2022-12-18T01:28:42;35.70;;;17.27;;
9884;SDS011;4981;50.966;4.842;2022-12-18T01:31:11;36.17;;;17.80;;
9884;SDS011;4981;50.966;4.842;2022-12-18T01:33:39;30.63;;;18.20;;
9884;SDS011;4981;50.966;4.842;2022-12-18T01:36:07;34.97;;;17.73;;
9884;SDS011;4981;50.966;4.842;2022-12-18T01:38:34;33.67;;;17.60;;
9884;SDS011;4981;50.966;4.842;2022-12-18T01:41:01;32.33;;;16.90;;
9884;SDS011;4981;50.966;4.842;2022-12-18T01:43:42;29.97;;;17.17;;
9884;SDS011;4981;50.966;4.842;2022-12-18T01:46:11;30.83;;;16.83;;
9884;SDS011;4981;50.966;4.842;2022-12-18T01:48:38;28.80;;;16.10;;
9884;SDS011;4981;50.966;4.842;2022-12-18T01:51:06;31.13;;;16.60;;
9884;SDS011;4981;50.966;4.842;2022-12-18T01:53:35;31.00;;;16.60;;
9884;SDS011;4981;50.966;4.842;2022-12-18T01:56:03;29.23;;;16.10;;
9884;SDS011;4981;50.966;4.842;2022-12-18T01:58:32;29.00;;;16.80;;
9884;SDS011;4981;50.966;4.842;2022-12-18T02:01:07;28.90;;;16.10;;
9884;SDS011;4981;50.966;4.842;2022-12-18T02:03:34;27.90;;;16.00;;
9884;SDS011;4981;50.966;4.842;2022-12-18T02:06:04;36.23;;;18.40;;
9884;SDS011;4981;50.966;4.842;2022-12-18T02:08:40;34.40;;;19.77;;
9884;SDS011;4981;50.966;4.842;2022-12-18T02:11:15;33.50;;;18.13;;
9884;SDS011;4981;50.966;4.842;2022-12-18T02:16:36;35.27;;;19.07;;
9884;SDS011;4981;50.966;4.842;2022-12-18T02:19:09;38.93;;;20.57;;
9884;SDS011;4981;50.966;4.842;2022-12-18T02:21:55;34.47;;;18.50;;
9884;SDS011;4981;50.966;4.842;2022-12-18T02:24:32;33.30;;;18.00;;
9884;SDS011;4981;50.966;4.842;2022-12-18T02:27:06;37.77;;;18.90;;
9884;SDS011;4981;50.966;4.842;2022-12-18T02:29:36;33.50;;;17.77;;
9884;SDS011;4981;50.966;4.842;2022-12-18T02:32:08;34.40;;;16.87;;
9884;SDS011;4981;50.966;4.842;2022-12-18T02:34:39;34.17;;;17.67;;
9884;SDS011;4981;50.966;4.842;2022-12-18T02:37:07;29.33;;;16.80;;
9884;SDS011;4981;50.966;4.842;2022-12-18T02:39:38;31.40;;;16.23;;
9884;SDS011;4981;50.966;4.842;2022-12-18T02:42:09;29.47;;;17.13;;
9884;SDS011;4981;50.966;4.842;2022-12-18T02:44:41;28.93;;;15.87;;
9884;SDS011;4981;50.966;4.842;2022-12-18T02:47:10;26.90;;;13.97;;
9884;SDS011;4981;50.966;4.842;2022-12-18T02:49:40;29.07;;;14.67;;
9884;SDS011;4981;50.966;4.842;2022-12-18T02:52:17;25.97;;;14.27;;
9884;SDS011;4981;50.966;4.842;2022-12-18T02:54:55;24.63;;;14.53;;
9884;SDS011;4981;50.966;4.842;2022-12-18T02:57:33;31.53;;;15.17;;
9884;SDS011;4981;50.966;4.842;2022-12-18T03:00:04;25.83;;;14.07;;
9884;SDS011;4981;50.966;4.842;2022-12-18T03:02:36;27.37;;;14.10;;
9884;SDS011;4981;50.966;4.842;2022-12-18T03:05:07;24.10;;;13.63;;
9884;SDS011;4981;50.966;4.842;2022-12-18T03:07:40;23.00;;;13.70;;
9884;SDS011;4981;50.966;4.842;2022-12-18T03:10:12;25.47;;;14.07;;
9884;SDS011;4981;50.966;4.842;2022-12-18T03:12:44;26.87;;;12.87;;
9884;SDS011;4981;50.966;4.842;2022-12-18T03:15:14;22.87;;;12.77;;
9884;SDS011;4981;50.966;4.842;2022-12-18T03:17:46;26.20;;;14.17;;
9884;SDS011;4981;50.966;4.842;2022-12-18T03:20:18;28.20;;;14.33;;
9884;SDS011;4981;50.966;4.842;2022-12-18T03:22:48;26.37;;;13.93;;
9884;SDS011;4981;50.966;4.842;2022-12-18T03:25:18;29.30;;;14.27;;
9884;SDS011;4981;50.966;4.842;2022-12-18T03:27:48;27.20;;;12.90;;
9884;SDS011;4981;50.966;4.842;2022-12-18T03:30:18;23.87;;;13.63;;
9884;SDS011;4981;50.966;4.842;2022-12-18T03:32:46;26.07;;;14.10;;
9884;SDS011;4981;50.966;4.842;2022-12-18T03:35:17;24.93;;;13.20;;
9884;SDS011;4981;50.966;4.842;2022-12-18T03:37:48;25.40;;;12.93;;
9884;SDS011;4981;50.966;4.842;2022-12-18T03:40:15;23.97;;;13.30;;
9884;SDS011;4981;50.966;4.842;2022-12-18T03:42:44;25.73;;;13.30;;
9884;SDS011;4981;50.966;4.842;2022-12-18T03:45:19;26.63;;;12.63;;
9884;SDS011;4981;50.966;4.842;2022-12-18T03:47:55;24.17;;;12.90;;
9884;SDS011;4981;50.966;4.842;2022-12-18T03:50:28;23.90;;;13.23;;
9884;SDS011;4981;50.966;4.842;2022-12-18T03:53:05;22.27;;;12.47;;
9884;SDS011;4981;50.966;4.842;2022-12-18T03:55:41;22.10;;;12.40;;
9884;SDS011;4981;50.966;4.842;2022-12-18T03:58:11;23.70;;;12.60;;
9884;SDS011;4981;50.966;4.842;2022-12-18T04:00:43;23.40;;;12.03;;
9884;SDS011;4981;50.966;4.842;2022-12-18T04:03:10;23.70;;;12.03;;
9884;SDS011;4981;50.966;4.842;2022-12-18T04:05:40;25.20;;;12.87;;
9884;SDS011;4981;50.966;4.842;2022-12-18T04:08:08;23.23;;;12.73;;
9884;SDS011;4981;50.966;4.842;2022-12-18T04:10:35;24.67;;;11.93;;
9884;SDS011;4981;50.966;4.842;2022-12-18T04:13:03;29.27;;;13.60;;
9884;SDS011;4981;50.966;4.842;2022-12-18T04:15:31;24.53;;;12.53;;
9884;SDS011;4981;50.966;4.842;2022-12-18T04:18:00;24.90;;;12.27;;
9884;SDS011;4981;50.966;4.842;2022-12-18T04:20:28;25.77;;;12.80;;
9884;SDS011;4981;50.966;4.842;2022-12-18T04:22:55;28.07;;;12.70;;
9884;SDS011;4981;50.966;4.842;2022-12-18T04:25:22;25.00;;;13.27;;
9884;SDS011;4981;50.966;4.842;2022-12-18T04:27:49;22.43;;;12.53;;
9884;SDS011;4981;50.966;4.842;2022-12-18T04:30:16;21.27;;;11.70;;
9884;SDS011;4981;50.966;4.842;2022-12-18T04:32:44;19.83;;;12.20;;
9884;SDS011;4981;50.966;4.842;2022-12-18T04:35:11;22.27;;;12.50;;
9884;SDS011;4981;50.966;4.842;2022-12-18T04:37:38;23.70;;;12.27;;
9884;SDS011;4981;50.966;4.842;2022-12-18T04:40:05;23.13;;;12.97;;
9884;SDS011;4981;50.966;4.842;2022-12-18T04:42:33;21.53;;;12.53;;
9884;SDS011;4981;50.966;4.842;2022-12-18T04:45:00;24.27;;;13.50;;
9884;SDS011;4981;50.966;4.842;2022-12-18T04:47:27;27.20;;;13.23;;
9884;SDS011;4981;50.966;4.842;2022-12-18T04:49:55;22.90;;;12.90;;
9884;SDS011;4981;50.966;4.842;2022-12-18T04:52:23;22.27;;;13.17;;
9884;SDS011;4981;50.966;4.842;2022-12-18T04:54:50;22.70;;;12.20;;
9884;SDS011;4981;50.966;4.842;2022-12-18T04:57:17;23.87;;;12.27;;
9884;SDS011;4981;50.966;4.842;2022-12-18T04:59:44;24.93;;;11.57;;
9884;SDS011;4981;50.966;4.842;2022-12-18T05:02:11;21.57;;;11.97;;
9884;SDS011;4981;50.966;4.842;2022-12-18T05:04:38;23.63;;;11.77;;
9884;SDS011;4981;50.966;4.842;2022-12-18T05:07:06;22.70;;;12.53;;
9884;SDS011;4981;50.966;4.842;2022-12-18T05:09:33;12.53;;;6.73;;
9884;SDS011;4981;50.966;4.842;2022-12-18T05:12:00;22.80;;;12.57;;
9884;SDS011;4981;50.966;4.842;2022-12-18T05:14:27;24.43;;;12.90;;
9884;SDS011;4981;50.966;4.842;2022-12-18T05:16:54;22.40;;;13.07;;
9884;SDS011;4981;50.966;4.842;2022-12-18T05:19:21;22.10;;;11.77;;
9884;SDS011;4981;50.966;4.842;2022-12-18T05:21:48;17.90;;;10.27;;
9884;SDS011;4981;50.966;4.842;2022-12-18T05:24:17;16.37;;;9.33;;
9884;SDS011;4981;50.966;4.842;2022-12-18T05:26:44;21.10;;;12.70;;
9884;SDS011;4981;50.966;4.842;2022-12-18T05:29:11;22.37;;;11.77;;
9884;SDS011;4981;50.966;4.842;2022-12-18T05:31:38;25.30;;;13.13;;
9884;SDS011;4981;50.966;4.842;2022-12-18T05:34:05;23.10;;;12.77;;
9884;SDS011;4981;50.966;4.842;2022-12-18T05:36:32;22.10;;;12.23;;
9884;SDS011;4981;50.966;4.842;2022-12-18T05:38:59;22.73;;;11.30;;
9884;SDS011;4981;50.966;4.842;2022-12-18T05:41:28;22.40;;;13.20;;
9884;SDS011;4981;50.966;4.842;2022-12-18T05:43:55;21.60;;;12.33;;
9884;SDS011;4981;50.966;4.842;2022-12-18T05:46:22;25.97;;;13.33;;
9884;SDS011;4981;50.966;4.842;2022-12-18T05:48:49;22.87;;;12.97;;
9884;SDS011;4981;50.966;4.842;2022-12-18T05:51:16;21.77;;;13.10;;
9884;SDS011;4981;50.966;4.842;2022-12-18T05:53:45;26.80;;;14.30;;
9884;SDS011;4981;50.966;4.842;2022-12-18T05:56:12;19.03;;;11.13;;
9884;SDS011;4981;50.966;4.842;2022-12-18T05:58:42;23.53;;;12.80;;
9884;SDS011;4981;50.966;4.842;2022-12-18T06:01:10;25.07;;;14.00;;
9884;SDS011;4981;50.966;4.842;2022-12-18T06:03:39;22.47;;;12.27;;
9884;SDS011;4981;50.966;4.842;2022-12-18T06:06:12;23.50;;;13.30;;
9884;SDS011;4981;50.966;4.842;2022-12-18T06:08:40;25.67;;;14.17;;
9884;SDS011;4981;50.966;4.842;2022-12-18T06:11:07;24.53;;;13.63;;
9884;SDS011;4981;50.966;4.842;2022-12-18T06:13:34;27.60;;;13.77;;
9884;SDS011;4981;50.966;4.842;2022-12-18T06:16:03;21.90;;;12.50;;
9884;SDS011;4981;50.966;4.842;2022-12-18T06:18:30;25.00;;;12.93;;
9884;SDS011;4981;50.966;4.842;2022-12-18T06:20:58;23.03;;;13.53;;
9884;SDS011;4981;50.966;4.842;2022-12-18T06:23:26;35.50;;;17.23;;
9884;SDS011;4981;50.966;4.842;2022-12-18T06:25:53;24.47;;;13.53;;
9884;SDS011;4981;50.966;4.842;2022-12-18T06:28:20;28.53;;;15.10;;
9884;SDS011;4981;50.966;4.842;2022-12-18T06:30:47;22.93;;;11.93;;
9884;SDS011;4981;50.966;4.842;2022-12-18T06:33:16;23.27;;;12.70;;
9884;SDS011;4981;50.966;4.842;2022-12-18T06:35:44;19.87;;;11.97;;
9884;SDS011;4981;50.966;4.842;2022-12-18T06:38:11;23.43;;;13.03;;
9884;SDS011;4981;50.966;4.842;2022-12-18T06:40:37;24.50;;;13.37;;
9884;SDS011;4981;50.966;4.842;2022-12-18T06:43:05;28.73;;;13.20;;
9884;SDS011;4981;50.966;4.842;2022-12-18T06:45:32;23.20;;;12.60;;
9884;SDS011;4981;50.966;4.842;2022-12-18T06:48:00;27.97;;;12.90;;
9884;SDS011;4981;50.966;4.842;2022-12-18T06:50:29;23.93;;;11.73;;
9884;SDS011;4981;50.966;4.842;2022-12-18T06:52:56;21.53;;;11.30;;
9884;SDS011;4981;50.966;4.842;2022-12-18T06:55:22;23.70;;;13.40;;
9884;SDS011;4981;50.966;4.842;2022-12-18T06:57:49;23.83;;;13.60;;
9884;SDS011;4981;50.966;4.842;2022-12-18T07:00:17;24.13;;;13.70;;
9884;SDS011;4981;50.966;4.842;2022-12-18T07:02:44;22.23;;;12.23;;
9884;SDS011;4981;50.966;4.842;2022-12-18T07:05:11;23.77;;;12.60;;
9884;SDS011;4981;50.966;4.842;2022-12-18T07:07:40;24.67;;;13.10;;
9884;SDS011;4981;50.966;4.842;2022-12-18T07:10:07;23.67;;;12.53;;
9884;SDS011;4981;50.966;4.842;2022-12-18T07:12:34;22.03;;;11.70;;
9884;SDS011;4981;50.966;4.842;2022-12-18T07:15:02;18.40;;;10.60;;
9884;SDS011;4981;50.966;4.842;2022-12-18T07:17:29;19.47;;;11.30;;
9884;SDS011;4981;50.966;4.842;2022-12-18T07:19:56;20.30;;;10.50;;
9884;SDS011;4981;50.966;4.842;2022-12-18T07:22:24;20.00;;;10.63;;
9884;SDS011;4981;50.966;4.842;2022-12-18T07:24:53;16.90;;;10.67;;
9884;SDS011;4981;50.966;4.842;2022-12-18T07:27:20;22.50;;;11.27;;
9884;SDS011;4981;50.966;4.842;2022-12-18T07:29:47;20.80;;;11.10;;
9884;SDS011;4981;50.966;4.842;2022-12-18T07:32:14;20.37;;;11.27;;
9884;SDS011;4981;50.966;4.842;2022-12-18T07:34:42;21.63;;;10.63;;
9884;SDS011;4981;50.966;4.842;2022-12-18T07:37:09;22.97;;;11.77;;
9884;SDS011;4981;50.966;4.842;2022-12-18T07:39:35;21.10;;;11.13;;
9884;SDS011;4981;50.966;4.842;2022-12-18T07:42:04;18.77;;;11.03;;
9884;SDS011;4981;50.966;4.842;2022-12-18T07:44:49;21.63;;;11.90;;
9884;SDS011;4981;50.966;4.842;2022-12-18T07:47:16;16.90;;;10.77;;
9884;SDS011;4981;50.966;4.842;2022-12-18T07:49:42;20.00;;;10.57;;
9884;SDS011;4981;50.966;4.842;2022-12-18T07:52:09;19.30;;;11.03;;
9884;SDS011;4981;50.966;4.842;2022-12-18T07:54:37;19.77;;;11.73;;
9884;SDS011;4981;50.966;4.842;2022-12-18T07:57:06;19.03;;;11.07;;
9884;SDS011;4981;50.966;4.842;2022-12-18T07:59:34;21.90;;;10.97;;
9884;SDS011;4981;50.966;4.842;2022-12-18T08:02:01;19.77;;;10.70;;
9884;SDS011;4981;50.966;4.842;2022-12-18T08:04:28;20.60;;;11.20;;
9884;SDS011;4981;50.966;4.842;2022-12-18T08:06:55;22.13;;;11.37;;
9884;SDS011;4981;50.966;4.842;2022-12-18T08:09:22;17.53;;;10.10;;
9884;SDS011;4981;50.966;4.842;2022-12-18T08:11:49;19.23;;;10.33;;
9884;SDS011;4981;50.966;4.842;2022-12-18T08:14:17;19.30;;;10.47;;
9884;SDS011;4981;50.966;4.842;2022-12-18T08:16:44;18.83;;;10.97;;
9884;SDS011;4981;50.966;4.842;2022-12-18T08:19:11;20.70;;;10.90;;
9884;SDS011;4981;50.966;4.842;2022-12-18T08:21:38;19.70;;;10.57;;
9884;SDS011;4981;50.966;4.842;2022-12-18T08:24:05;16.10;;;10.00;;
9884;SDS011;4981;50.966;4.842;2022-12-18T08:26:33;21.90;;;10.63;;
9884;SDS011;4981;50.966;4.842;2022-12-18T08:29:00;17.27;;;9.93;;
9884;SDS011;4981;50.966;4.842;2022-12-18T08:31:29;17.13;;;9.97;;
9884;SDS011;4981;50.966;4.842;2022-12-18T08:33:58;16.83;;;10.50;;
9884;SDS011;4981;50.966;4.842;2022-12-18T08:36:25;17.63;;;9.70;;
9884;SDS011;4981;50.966;4.842;2022-12-18T08:38:53;19.37;;;9.33;;
9884;SDS011;4981;50.966;4.842;2022-12-18T08:41:20;16.07;;;9.20;;
9884;SDS011;4981;50.966;4.842;2022-12-18T08:43:47;15.53;;;8.20;;
9884;SDS011;4981;50.966;4.842;2022-12-18T08:46:48;17.27;;;9.90;;
9884;SDS011;4981;50.966;4.842;2022-12-18T08:49:15;14.97;;;8.43;;
9884;SDS011;4981;50.966;4.842;2022-12-18T08:51:42;13.93;;;8.63;;
9884;SDS011;4981;50.966;4.842;2022-12-18T08:54:09;17.37;;;9.63;;
9884;SDS011;4981;50.966;4.842;2022-12-18T08:56:38;13.30;;;8.67;;
9884;SDS011;4981;50.966;4.842;2022-12-18T08:59:05;14.10;;;8.70;;
9884;SDS011;4981;50.966;4.842;2022-12-18T09:01:32;13.73;;;8.73;;
9884;SDS011;4981;50.966;4.842;2022-12-18T09:04:00;13.30;;;8.23;;
9884;SDS011;4981;50.966;4.842;2022-12-18T09:06:27;15.40;;;9.37;;
9884;SDS011;4981;50.966;4.842;2022-12-18T09:08:54;17.60;;;9.67;;
9884;SDS011;4981;50.966;4.842;2022-12-18T09:11:22;17.03;;;9.47;;
9884;SDS011;4981;50.966;4.842;2022-12-18T09:13:51;16.30;;;9.63;;
9884;SDS011;4981;50.966;4.842;2022-12-18T09:16:18;14.07;;;8.73;;
9884;SDS011;4981;50.966;4.842;2022-12-18T09:18:46;16.17;;;9.50;;
9884;SDS011;4981;50.966;4.842;2022-12-18T09:21:15;14.63;;;9.13;;
9884;SDS011;4981;50.966;4.842;2022-12-18T09:23:48;16.43;;;8.83;;
9884;SDS011;4981;50.966;4.842;2022-12-18T09:26:15;14.03;;;8.60;;
9884;SDS011;4981;50.966;4.842;2022-12-18T09:28:42;14.40;;;8.83;;
9884;SDS011;4981;50.966;4.842;2022-12-18T09:31:10;13.63;;;8.33;;
9884;SDS011;4981;50.966;4.842;2022-12-18T09:33:40;15.93;;;8.33;;
9884;SDS011;4981;50.966;4.842;2022-12-18T09:36:08;12.93;;;8.50;;
9884;SDS011;4981;50.966;4.842;2022-12-18T09:38:38;15.47;;;8.73;;
9884;SDS011;4981;50.966;4.842;2022-12-18T09:41:06;14.53;;;9.00;;
9884;SDS011;4981;50.966;4.842;2022-12-18T09:43:47;13.00;;;8.03;;
9884;SDS011;4981;50.966;4.842;2022-12-18T09:46:17;16.60;;;9.03;;
9884;SDS011;4981;50.966;4.842;2022-12-18T09:48:50;13.73;;;8.13;;
9884;SDS011;4981;50.966;4.842;2022-12-18T09:51:21;14.47;;;8.20;;
9884;SDS011;4981;50.966;4.842;2022-12-18T09:53:55;15.13;;;9.10;;
9884;SDS011;4981;50.966;4.842;2022-12-18T09:56:28;14.53;;;8.00;;
9884;SDS011;4981;50.966;4.842;2022-12-18T09:58:58;16.37;;;9.53;;
9884;SDS011;4981;50.966;4.842;2022-12-18T10:01:27;13.57;;;8.30;;
9884;SDS011;4981;50.966;4.842;2022-12-18T10:03:55;15.03;;;8.73;;
9884;SDS011;4981;50.966;4.842;2022-12-18T10:06:23;14.70;;;8.67;;
9884;SDS011;4981;50.966;4.842;2022-12-18T10:08:58;19.30;;;8.33;;
9884;SDS011;4981;50.966;4.842;2022-12-18T10:11:34;15.27;;;9.03;;
9884;SDS011;4981;50.966;4.842;2022-12-18T10:14:10;16.77;;;8.90;;
9884;SDS011;4981;50.966;4.842;2022-12-18T10:16:47;13.57;;;8.53;;
9884;SDS011;4981;50.966;4.842;2022-12-18T10:19:36;14.10;;;8.53;;
9884;SDS011;4981;50.966;4.842;2022-12-18T10:22:12;13.80;;;8.47;;
9884;SDS011;4981;50.966;4.842;2022-12-18T10:25:03;12.00;;;8.13;;
9884;SDS011;4981;50.966;4.842;2022-12-18T10:27:40;16.97;;;8.83;;
9884;SDS011;4981;50.966;4.842;2022-12-18T10:30:11;13.17;;;8.77;;
9884;SDS011;4981;50.966;4.842;2022-12-18T10:32:40;13.20;;;9.10;;
9884;SDS011;4981;50.966;4.842;2022-12-18T10:35:07;15.17;;;9.23;;
9884;SDS011;4981;50.966;4.842;2022-12-18T10:38:01;13.77;;;8.87;;
9884;SDS011;4981;50.966;4.842;2022-12-18T10:40:32;13.47;;;9.30;;
9884;SDS011;4981;50.966;4.842;2022-12-18T10:43:09;13.17;;;8.87;;
9884;SDS011;4981;50.966;4.842;2022-12-18T10:45:38;14.73;;;9.17;;
9884;SDS011;4981;50.966;4.842;2022-12-18T10:48:16;14.47;;;9.23;;
9884;SDS011;4981;50.966;4.842;2022-12-18T10:50:46;14.40;;;8.87;;
9884;SDS011;4981;50.966;4.842;2022-12-18T10:53:18;15.60;;;9.23;;
9884;SDS011;4981;50.966;4.842;2022-12-18T10:55:49;15.60;;;9.40;;
9884;SDS011;4981;50.966;4.842;2022-12-18T10:58:23;14.67;;;9.43;;
9884;SDS011;4981;50.966;4.842;2022-12-18T11:01:01;15.83;;;9.67;;
9884;SDS011;4981;50.966;4.842;2022-12-18T11:03:31;14.23;;;8.60;;
9884;SDS011;4981;50.966;4.842;2022-12-18T11:06:02;15.47;;;8.57;;
9884;SDS011;4981;50.966;4.842;2022-12-18T11:08:31;15.87;;;9.20;;
9884;SDS011;4981;50.966;4.842;2022-12-18T11:11:00;16.40;;;9.53;;
9884;SDS011;4981;50.966;4.842;2022-12-18T11:13:27;15.80;;;9.97;;
9884;SDS011;4981;50.966;4.842;2022-12-18T11:15:56;16.37;;;9.87;;
9884;SDS011;4981;50.966;4.842;2022-12-18T11:18:25;18.47;;;11.03;;
9884;SDS011;4981;50.966;4.842;2022-12-18T11:20:54;18.20;;;12.10;;
9884;SDS011;4981;50.966;4.842;2022-12-18T11:23:24;16.37;;;10.30;;
9884;SDS011;4981;50.966;4.842;2022-12-18T11:25:52;14.23;;;9.10;;
9884;SDS011;4981;50.966;4.842;2022-12-18T11:31:20;14.20;;;8.77;;
9884;SDS011;4981;50.966;4.842;2022-12-18T11:34:00;17.20;;;10.00;;
9884;SDS011;4981;50.966;4.842;2022-12-18T11:36:31;16.63;;;10.33;;
9884;SDS011;4981;50.966;4.842;2022-12-18T11:39:02;17.00;;;10.13;;
9884;SDS011;4981;50.966;4.842;2022-12-18T11:41:37;18.00;;;10.60;;
9884;SDS011;4981;50.966;4.842;2022-12-18T11:44:29;16.10;;;10.10;;
9884;SDS011;4981;50.966;4.842;2022-12-18T11:47:03;16.70;;;9.70;;
9884;SDS011;4981;50.966;4.842;2022-12-18T11:49:35;14.90;;;10.07;;
9884;SDS011;4981;50.966;4.842;2022-12-18T11:52:04;16.63;;;10.43;;
9884;SDS011;4981;50.966;4.842;2022-12-18T11:54:44;15.17;;;9.77;;
9884;SDS011;4981;50.966;4.842;2022-12-18T11:57:13;16.50;;;10.07;;
9884;SDS011;4981;50.966;4.842;2022-12-18T11:59:56;17.63;;;10.47;;
9884;SDS011;4981;50.966;4.842;2022-12-18T12:02:36;19.47;;;11.10;;
9884;SDS011;4981;50.966;4.842;2022-12-18T12:05:20;16.17;;;9.47;;
9884;SDS011;4981;50.966;4.842;2022-12-18T12:07:59;15.60;;;9.40;;
9884;SDS011;4981;50.966;4.842;2022-12-18T12:10:39;14.87;;;10.20;;
9884;SDS011;4981;50.966;4.842;2022-12-18T12:13:23;17.10;;;10.33;;
9884;SDS011;4981;50.966;4.842;2022-12-18T12:16:06;18.57;;;11.03;;
9884;SDS011;4981;50.966;4.842;2022-12-18T12:18:43;18.50;;;10.20;;
9884;SDS011;4981;50.966;4.842;2022-12-18T12:21:20;15.37;;;9.50;;
9884;SDS011;4981;50.966;4.842;2022-12-18T12:23:55;15.77;;;9.67;;
9884;SDS011;4981;50.966;4.842;2022-12-18T12:26:29;16.90;;;10.43;;
9884;SDS011;4981;50.966;4.842;2022-12-18T12:32:00;15.33;;;10.50;;
9884;SDS011;4981;50.966;4.842;2022-12-18T12:34:38;17.17;;;11.27;;
9884;SDS011;4981;50.966;4.842;2022-12-18T12:37:18;18.53;;;11.40;;
9884;SDS011;4981;50.966;4.842;2022-12-18T12:39:50;16.93;;;10.87;;
9884;SDS011;4981;50.966;4.842;2022-12-18T12:42:23;17.93;;;10.90;;
9884;SDS011;4981;50.966;4.842;2022-12-18T12:45:15;16.57;;;11.03;;
9884;SDS011;4981;50.966;4.842;2022-12-18T12:47:47;16.47;;;11.20;;
9884;SDS011;4981;50.966;4.842;2022-12-18T12:50:17;18.77;;;11.53;;
9884;SDS011;4981;50.966;4.842;2022-12-18T12:52:46;15.73;;;10.60;;
9884;SDS011;4981;50.966;4.842;2022-12-18T12:55:18;17.53;;;11.60;;
9884;SDS011;4981;50.966;4.842;2022-12-18T12:57:51;15.23;;;10.73;;
9884;SDS011;4981;50.966;4.842;2022-12-18T13:00:25;15.70;;;11.10;;
9884;SDS011;4981;50.966;4.842;2022-12-18T13:03:01;18.20;;;10.60;;
9884;SDS011;4981;50.966;4.842;2022-12-18T13:05:38;13.90;;;10.07;;
9884;SDS011;4981;50.966;4.842;2022-12-18T13:08:08;19.67;;;11.50;;
9884;SDS011;4981;50.966;4.842;2022-12-18T13:10:36;17.90;;;11.50;;
9884;SDS011;4981;50.966;4.842;2022-12-18T13:13:05;18.57;;;12.37;;
9884;SDS011;4981;50.966;4.842;2022-12-18T13:15:33;17.77;;;11.77;;
9884;SDS011;4981;50.966;4.842;2022-12-18T13:20:49;19.87;;;12.03;;
9884;SDS011;4981;50.966;4.842;2022-12-18T13:28:55;17.60;;;11.67;;
9884;SDS011;4981;50.966;4.842;2022-12-18T13:34:35;17.73;;;12.07;;
9884;SDS011;4981;50.966;4.842;2022-12-18T13:43:23;18.40;;;12.13;;
9884;SDS011;4981;50.966;4.842;2022-12-18T13:46:03;17.77;;;12.00;;
9884;SDS011;4981;50.966;4.842;2022-12-18T13:48:33;19.17;;;12.93;;
9884;SDS011;4981;50.966;4.842;2022-12-18T13:51:05;18.43;;;12.43;;
9884;SDS011;4981;50.966;4.842;2022-12-18T13:53:36;19.67;;;12.37;;
9884;SDS011;4981;50.966;4.842;2022-12-18T13:56:05;16.83;;;11.10;;
9884;SDS011;4981;50.966;4.842;2022-12-18T13:58:32;17.60;;;11.77;;
9884;SDS011;4981;50.966;4.842;2022-12-18T14:00:59;20.20;;;12.10;;
9884;SDS011;4981;50.966;4.842;2022-12-18T14:03:29;29.50;;;17.57;;
9884;SDS011;4981;50.966;4.842;2022-12-18T14:05:58;10.83;;;6.53;;
9884;SDS011;4981;50.966;4.842;2022-12-18T14:08:34;17.47;;;12.13;;
9884;SDS011;4981;50.966;4.842;2022-12-18T14:11:05;20.40;;;12.73;;
9884;SDS011;4981;50.966;4.842;2022-12-18T14:13:34;20.90;;;13.10;;
9884;SDS011;4981;50.966;4.842;2022-12-18T14:16:03;19.30;;;12.60;;
9884;SDS011;4981;50.966;4.842;2022-12-18T14:18:36;20.00;;;12.50;;
9884;SDS011;4981;50.966;4.842;2022-12-18T14:21:15;18.67;;;11.87;;
9884;SDS011;4981;50.966;4.842;2022-12-18T14:23:47;18.93;;;12.77;;
9884;SDS011;4981;50.966;4.842;2022-12-18T14:26:21;18.87;;;11.87;;
9884;SDS011;4981;50.966;4.842;2022-12-18T14:28:52;18.40;;;12.30;;
9884;SDS011;4981;50.966;4.842;2022-12-18T14:31:21;20.17;;;12.30;;
9884;SDS011;4981;50.966;4.842;2022-12-18T14:33:49;21.80;;;13.53;;
9884;SDS011;4981;50.966;4.842;2022-12-18T14:36:17;20.70;;;13.20;;
9884;SDS011;4981;50.966;4.842;2022-12-18T14:38:49;18.47;;;13.10;;
9884;SDS011;4981;50.966;4.842;2022-12-18T14:41:18;20.57;;;12.87;;
9884;SDS011;4981;50.966;4.842;2022-12-18T14:43:47;24.10;;;13.60;;
9884;SDS011;4981;50.966;4.842;2022-12-18T14:46:25;21.67;;;12.90;;
9884;SDS011;4981;50.966;4.842;2022-12-18T14:48:56;24.67;;;14.13;;
9884;SDS011;4981;50.966;4.842;2022-12-18T14:51:24;38.00;;;21.53;;
9884;SDS011;4981;50.966;4.842;2022-12-18T14:53:54;20.83;;;13.23;;
9884;SDS011;4981;50.966;4.842;2022-12-18T14:56:23;23.13;;;13.83;;
9884;SDS011;4981;50.966;4.842;2022-12-18T14:58:52;21.33;;;13.43;;
9884;SDS011;4981;50.966;4.842;2022-12-18T15:01:23;23.27;;;14.40;;
9884;SDS011;4981;50.966;4.842;2022-12-18T15:03:53;20.30;;;13.77;;
9884;SDS011;4981;50.966;4.842;2022-12-18T15:06:25;19.47;;;12.60;;
9884;SDS011;4981;50.966;4.842;2022-12-18T15:08:57;22.80;;;13.80;;
9884;SDS011;4981;50.966;4.842;2022-12-18T15:11:26;22.20;;;14.03;;
9884;SDS011;4981;50.966;4.842;2022-12-18T15:13:57;21.00;;;14.50;;
9884;SDS011;4981;50.966;4.842;2022-12-18T15:16:24;23.43;;;14.90;;
9884;SDS011;4981;50.966;4.842;2022-12-18T15:18:51;22.77;;;14.20;;
9884;SDS011;4981;50.966;4.842;2022-12-18T15:21:19;22.80;;;13.27;;
9884;SDS011;4981;50.966;4.842;2022-12-18T15:23:47;22.03;;;14.67;;
9884;SDS011;4981;50.966;4.842;2022-12-18T15:26:18;24.63;;;15.33;;
9884;SDS011;4981;50.966;4.842;2022-12-18T15:28:47;28.30;;;17.30;;
9884;SDS011;4981;50.966;4.842;2022-12-18T15:31:21;27.40;;;16.03;;
9884;SDS011;4981;50.966;4.842;2022-12-18T15:36:46;24.13;;;15.23;;
9884;SDS011;4981;50.966;4.842;2022-12-18T15:39:13;27.93;;;15.40;;